createdAt,value
2017-12-11T00:00:24.353Z,7.65
2017-12-11T00:01:27.657Z,5.20
2017-12-11T00:02:30.174Z,7.22
2017-12-11T00:03:32.699Z,9.23
2017-12-11T00:04:35.214Z,5.45
2017-12-11T00:05:37.734Z,4.57
2017-12-11T00:06:40.272Z,7.60
2017-12-11T00:07:43.547Z,7.93
2017-12-11T00:08:46.056Z,2.47
2017-12-11T00:09:48.576Z,3.62
2017-12-11T00:10:51.118Z,5.62
2017-12-11T00:11:53.635Z,3.45
2017-12-11T00:12:56.184Z,5.72
2017-12-11T00:13:59.480Z,2.72
2017-12-11T00:15:01.998Z,2.80
2017-12-11T00:16:15.390Z,6.05
2017-12-11T00:17:17.904Z,5.90
2017-12-11T00:18:20.466Z,3.45
2017-12-11T00:19:22.982Z,6.55
2017-12-11T00:20:25.501Z,5.18
2017-12-11T00:21:28.804Z,3.53
2017-12-11T00:22:43.907Z,3.95
2017-12-11T00:23:46.416Z,9.35
2017-12-11T00:24:48.930Z,5.32
2017-12-11T00:25:51.446Z,3.97
2017-12-11T00:26:54.000Z,4.82
2017-12-11T00:27:56.512Z,10.82
2017-12-11T00:28:59.036Z,13.10
2017-12-11T00:30:01.553Z,9.85
2017-12-11T00:31:04.060Z,3.72
2017-12-11T00:32:06.605Z,7.18
2017-12-11T00:33:09.134Z,3.30
2017-12-11T00:34:11.654Z,6.72
2017-12-11T00:35:14.165Z,3.15
2017-12-11T00:36:16.673Z,4.40
2017-12-11T00:37:19.240Z,5.72
2017-12-11T00:38:21.752Z,17.40
2017-12-11T00:39:25.025Z,4.53
2017-12-11T00:40:28.298Z,3.10
2017-12-11T00:41:30.816Z,11.02
2017-12-11T00:42:33.382Z,4.82
2017-12-11T00:43:35.893Z,3.67
2017-12-11T00:44:38.403Z,3.65
2017-12-11T00:45:40.930Z,3.58
2017-12-11T00:46:43.565Z,2.90
2017-12-11T00:47:46.103Z,1.92
2017-12-11T00:48:48.642Z,3.10
2017-12-11T00:49:51.921Z,4.03
2017-12-11T00:50:55.210Z,4.03
2017-12-11T00:51:58.487Z,3.70
2017-12-11T00:53:01.769Z,2.55
2017-12-11T00:54:04.313Z,2.20
2017-12-11T00:55:06.835Z,2.10
2017-12-11T00:56:09.346Z,4.72
2017-12-11T00:57:11.930Z,2.55
2017-12-11T00:58:14.491Z,1.80
2017-12-11T00:59:17.001Z,1.98
2017-12-11T01:00:19.571Z,4.32
2017-12-11T01:01:22.137Z,3.33
2017-12-11T01:02:24.660Z,3.87
2017-12-11T01:03:27.169Z,2.22
2017-12-11T01:04:29.685Z,3.33
2017-12-11T01:05:32.234Z,2.08
2017-12-11T01:06:34.791Z,3.65
2017-12-11T01:07:37.358Z,1.27
2017-12-11T01:08:39.868Z,2.08
2017-12-11T01:09:43.142Z,1.40
2017-12-11T01:10:45.689Z,1.33
2017-12-11T01:11:48.203Z,3.22
2017-12-11T01:12:50.769Z,3.22
2017-12-11T01:13:53.276Z,2.08
2017-12-11T01:14:55.796Z,3.30
2017-12-11T01:15:58.374Z,4.22
2017-12-11T01:17:00.925Z,1.05
2017-12-11T01:18:03.442Z,1.52
2017-12-11T01:19:05.991Z,1.27
2017-12-11T01:20:08.507Z,1.17
2017-12-11T01:21:11.789Z,2.35
2017-12-11T01:22:15.094Z,1.30
2017-12-11T01:23:17.614Z,1.70
2017-12-11T01:24:20.268Z,1.05
2017-12-11T01:25:22.782Z,1.80
2017-12-11T01:26:26.056Z,1.70
2017-12-11T01:27:29.333Z,1.12
2017-12-11T01:28:31.873Z,1.23
2017-12-11T01:29:34.381Z,3.78
2017-12-11T01:30:37.763Z,2.30
2017-12-11T01:31:41.068Z,1.48
2017-12-11T01:32:43.589Z,1.33
2017-12-11T01:33:46.134Z,0.90
2017-12-11T01:34:48.672Z,1.50
2017-12-11T01:35:51.183Z,1.10
2017-12-11T01:36:53.692Z,1.67
2017-12-11T01:37:56.241Z,1.20
2017-12-11T01:38:59.604Z,1.15
2017-12-11T01:40:02.149Z,1.00
2017-12-11T01:41:04.655Z,2.05
2017-12-11T01:42:07.938Z,6.00
2017-12-11T01:43:11.211Z,1.17
2017-12-11T01:44:13.735Z,1.10
2017-12-11T01:45:16.301Z,1.83
2017-12-11T01:46:18.809Z,1.62
2017-12-11T01:47:21.316Z,1.40
2017-12-11T01:48:23.824Z,0.98
2017-12-11T01:49:27.093Z,1.08
2017-12-11T01:50:29.637Z,1.10
2017-12-11T01:51:32.149Z,1.30
2017-12-11T01:52:34.658Z,2.65
2017-12-11T01:53:37.211Z,1.42
2017-12-11T01:54:40.491Z,1.42
2017-12-11T01:55:43.771Z,1.25
2017-12-11T01:56:47.046Z,1.52
2017-12-11T01:57:50.371Z,1.45
2017-12-11T01:58:52.933Z,1.40
2017-12-11T01:59:55.442Z,0.82
2017-12-11T02:00:57.946Z,1.37
2017-12-11T02:02:00.463Z,4.43
2017-12-11T02:03:02.980Z,1.20
2017-12-11T02:04:05.541Z,1.30
2017-12-11T02:05:08.818Z,1.40
2017-12-11T02:06:12.092Z,1.98
2017-12-11T02:07:15.379Z,1.02
2017-12-11T02:08:18.660Z,1.20
2017-12-11T02:10:30.930Z,1.40
2017-12-11T02:11:33.446Z,1.50
2017-12-11T02:12:35.953Z,1.55
2017-12-11T02:13:38.473Z,1.55
2017-12-11T02:14:41.113Z,1.60
2017-12-11T02:15:43.627Z,1.70
2017-12-11T02:16:46.136Z,1.55
2017-12-11T02:17:48.645Z,0.98
2017-12-11T02:18:51.170Z,1.40
2017-12-11T02:19:53.718Z,1.20
2017-12-11T02:20:56.236Z,1.25
2017-12-11T02:21:59.526Z,1.37
2017-12-11T02:23:02.048Z,1.55
2017-12-11T02:24:04.558Z,1.80
2017-12-11T02:25:07.109Z,1.92
2017-12-11T02:26:10.394Z,1.65
2017-12-11T02:27:13.679Z,1.60
2017-12-11T02:28:16.949Z,1.50
2017-12-11T02:29:20.224Z,2.03
2017-12-11T02:30:22.777Z,1.70
2017-12-11T02:31:25.295Z,1.73
2017-12-11T02:32:27.833Z,1.30
2017-12-11T02:33:31.118Z,1.77
2017-12-11T02:34:34.394Z,1.50
2017-12-11T02:35:36.906Z,2.15
2017-12-11T02:36:39.427Z,1.40
2017-12-11T02:37:42.737Z,2.90
2017-12-11T02:38:45.257Z,1.27
2017-12-11T02:39:47.770Z,1.85
2017-12-11T02:40:50.294Z,1.98
2017-12-11T02:41:52.805Z,1.87
2017-12-11T02:42:55.354Z,2.00
2017-12-11T02:43:58.634Z,1.40
2017-12-11T02:45:01.908Z,1.85
2017-12-11T02:46:05.181Z,1.67
2017-12-11T02:47:07.688Z,1.62
2017-12-11T02:48:10.230Z,1.83
2017-12-11T02:49:13.506Z,1.75
2017-12-11T02:50:16.019Z,1.65
2017-12-11T02:51:18.539Z,2.00
2017-12-11T02:52:21.817Z,1.73
2017-12-11T02:53:24.385Z,1.67
2017-12-11T02:54:26.897Z,1.83
2017-12-11T02:55:29.405Z,2.00
2017-12-11T02:56:31.920Z,1.50
2017-12-11T02:57:34.435Z,2.03
2017-12-11T02:58:36.984Z,2.40
2017-12-11T02:59:39.535Z,2.75
2017-12-11T03:00:42.089Z,1.87
2017-12-11T03:01:44.601Z,1.98
2017-12-11T03:02:47.120Z,2.10
2017-12-11T03:03:49.686Z,2.17
2017-12-11T03:04:52.231Z,4.50
2017-12-11T03:05:54.745Z,2.05
2017-12-11T03:06:57.263Z,3.78
2017-12-11T03:07:59.785Z,2.55
2017-12-11T03:09:02.349Z,1.60
2017-12-11T03:10:04.866Z,2.30
2017-12-11T03:11:07.373Z,1.98
2017-12-11T03:12:09.885Z,2.50
2017-12-11T03:13:13.161Z,2.35
2017-12-11T03:14:16.474Z,5.03
2017-12-11T03:15:18.987Z,2.12
2017-12-11T03:16:21.556Z,3.17
2017-12-11T03:17:24.074Z,2.70
2017-12-11T03:18:26.601Z,3.22
2017-12-11T03:19:29.156Z,3.33
2017-12-11T03:20:31.673Z,2.60
2017-12-11T03:21:34.218Z,2.67
2017-12-11T03:22:36.734Z,2.60
2017-12-11T03:23:39.245Z,3.67
2017-12-11T03:24:41.758Z,3.40
2017-12-11T03:25:44.290Z,5.10
2017-12-11T03:26:46.838Z,4.00
2017-12-11T03:27:50.117Z,3.60
2017-12-11T03:28:53.398Z,4.40
2017-12-11T03:29:56.714Z,4.43
2017-12-11T03:30:59.272Z,4.18
2017-12-11T03:32:01.781Z,4.72
2017-12-11T03:33:04.341Z,5.10
2017-12-11T03:34:06.898Z,5.12
2017-12-11T03:35:09.409Z,4.75
2017-12-11T03:36:11.917Z,9.20
2017-12-11T03:37:14.436Z,5.35
2017-12-11T03:38:16.998Z,6.18
2017-12-11T03:39:19.509Z,5.78
2017-12-11T03:40:22.019Z,5.85
2017-12-11T03:41:24.530Z,4.43
2017-12-11T03:42:27.225Z,5.80
2017-12-11T03:43:29.771Z,5.00
2017-12-11T03:44:32.289Z,4.65
2017-12-11T03:45:34.845Z,5.30
2017-12-11T03:46:37.358Z,5.75
2017-12-11T03:47:40.642Z,5.35
2017-12-11T03:48:43.917Z,5.87
2017-12-11T03:49:47.226Z,5.65
2017-12-11T03:50:49.746Z,5.55
2017-12-11T03:51:52.256Z,6.10
2017-12-11T03:52:54.773Z,5.37
2017-12-11T03:53:57.566Z,6.03
2017-12-11T03:55:00.889Z,4.95
2017-12-11T03:56:03.414Z,6.30
2017-12-11T03:57:06.690Z,5.80
2017-12-11T03:58:09.205Z,5.87
2017-12-11T03:59:11.726Z,9.15
2017-12-11T04:00:15.049Z,6.10
2017-12-11T04:01:17.565Z,6.60
2017-12-11T04:02:20.077Z,6.05
2017-12-11T04:03:22.593Z,6.00
2017-12-11T04:04:25.106Z,6.30
2017-12-11T04:05:27.673Z,6.62
2017-12-11T04:06:30.196Z,6.07
2017-12-11T04:07:33.505Z,5.72
2017-12-11T04:08:36.780Z,5.72
2017-12-11T04:09:40.057Z,9.60
2017-12-11T04:10:43.387Z,6.30
2017-12-11T04:11:45.898Z,5.15
2017-12-11T04:12:48.409Z,6.70
2017-12-11T04:13:50.924Z,9.38
2017-12-11T04:14:53.446Z,6.93
2017-12-11T04:15:56.003Z,5.82
2017-12-11T04:16:58.519Z,6.75
2017-12-11T04:18:01.053Z,5.70
2017-12-11T04:19:03.573Z,5.50
2017-12-11T04:20:06.854Z,5.75
2017-12-11T04:21:10.161Z,4.80
2017-12-11T04:22:12.692Z,5.47
2017-12-11T04:23:15.213Z,5.82
2017-12-11T04:24:17.724Z,5.10
2017-12-11T04:25:20.252Z,6.65
2017-12-11T04:26:22.816Z,30.27
2017-12-11T04:27:25.333Z,15.15
2017-12-11T04:28:28.609Z,6.85
2017-12-11T04:29:31.121Z,49.25
2017-12-11T04:30:33.644Z,12.35
2017-12-11T04:31:36.959Z,7.85
2017-12-11T04:32:39.480Z,5.87
2017-12-11T04:33:41.988Z,6.03
2017-12-11T04:34:44.510Z,6.03
2017-12-11T04:35:47.021Z,5.25
2017-12-11T04:36:49.580Z,5.75
2017-12-11T04:37:52.090Z,5.87
2017-12-11T04:38:54.598Z,5.43
2017-12-11T04:39:57.879Z,6.20
2017-12-11T04:41:01.162Z,12.02
2017-12-11T04:42:04.480Z,7.07
2017-12-11T04:43:06.997Z,13.30
2017-12-11T04:44:09.516Z,22.13
2017-12-11T04:45:12.121Z,34.25
2017-12-11T04:46:14.649Z,24.27
2017-12-11T04:47:17.199Z,22.00
2017-12-11T04:48:19.768Z,10.95
2017-12-11T04:49:22.286Z,9.65
2017-12-11T04:50:24.802Z,7.60
2017-12-11T04:51:27.320Z,10.23
2017-12-11T04:52:29.831Z,8.20
2017-12-11T04:53:32.375Z,9.55
2017-12-11T04:54:35.652Z,6.20
2017-12-11T04:55:38.169Z,8.23
2017-12-11T04:56:40.740Z,8.05
2017-12-11T04:57:43.226Z,6.97
2017-12-11T04:58:45.798Z,6.87
2017-12-11T04:59:48.309Z,7.75
2017-12-11T05:00:50.820Z,6.72
2017-12-11T05:01:53.337Z,7.90
2017-12-11T05:02:55.884Z,7.40
2017-12-11T05:03:59.170Z,7.03
2017-12-11T05:05:02.449Z,8.13
2017-12-11T05:06:05.733Z,9.15
2017-12-11T05:07:09.034Z,7.95
2017-12-11T05:08:11.588Z,7.57
2017-12-11T05:09:14.868Z,9.65
2017-12-11T05:10:18.142Z,8.63
2017-12-11T05:11:21.424Z,8.60
2017-12-11T05:12:24.702Z,8.38
2017-12-11T05:13:27.260Z,8.15
2017-12-11T05:14:29.789Z,18.90
2017-12-11T05:15:32.303Z,12.13
2017-12-11T05:16:34.860Z,10.15
2017-12-11T05:17:37.370Z,11.43
2017-12-11T05:18:39.882Z,10.00
2017-12-11T05:19:42.438Z,8.57
2017-12-11T05:20:44.952Z,7.93
2017-12-11T05:21:48.230Z,8.55
2017-12-11T05:22:51.512Z,8.73
2017-12-11T05:23:54.798Z,16.92
2017-12-11T05:24:57.446Z,25.17
2017-12-11T05:26:00.738Z,14.10
2017-12-11T05:27:04.012Z,11.15
2017-12-11T05:28:06.529Z,13.25
2017-12-11T05:29:09.045Z,10.45
2017-12-11T05:30:11.605Z,10.15
2017-12-11T05:31:14.115Z,8.82
2017-12-11T05:32:16.629Z,8.57
2017-12-11T05:33:19.138Z,9.45
2017-12-11T05:34:21.658Z,12.80
2017-12-11T05:35:24.205Z,10.98
2017-12-11T05:36:26.719Z,9.38
2017-12-11T05:37:30.038Z,9.85
2017-12-11T05:38:32.586Z,12.35
2017-12-11T05:39:35.121Z,11.50
2017-12-11T05:40:37.669Z,10.00
2017-12-11T05:41:40.217Z,12.15
2017-12-11T05:42:42.733Z,10.23
2017-12-11T05:43:46.023Z,12.50
2017-12-11T05:44:49.308Z,10.18
2017-12-11T05:45:52.597Z,10.18
2017-12-11T05:46:55.149Z,11.38
2017-12-11T05:47:58.433Z,10.68
2017-12-11T05:49:01.718Z,13.18
2017-12-11T05:50:04.293Z,17.27
2017-12-11T05:51:07.581Z,12.37
2017-12-11T05:52:10.856Z,13.93
2017-12-11T05:53:14.152Z,13.07
2017-12-11T05:54:16.708Z,14.38
2017-12-11T05:55:19.994Z,19.37
2017-12-11T05:56:23.277Z,28.38
2017-12-11T05:57:26.558Z,27.27
2017-12-11T05:58:29.941Z,25.67
2017-12-11T05:59:33.278Z,24.45
2017-12-11T06:00:35.802Z,24.65
2017-12-11T06:01:38.330Z,23.38
2017-12-11T06:02:40.857Z,27.67
2017-12-11T06:03:43.378Z,19.37
2017-12-11T06:04:45.933Z,17.52
2017-12-11T06:05:48.510Z,21.75
2017-12-11T06:06:51.033Z,22.17
2017-12-11T06:07:53.567Z,20.48
2017-12-11T06:08:56.094Z,21.52
2017-12-11T06:09:58.612Z,20.37
2017-12-11T06:11:01.315Z,36.08
2017-12-11T06:12:03.830Z,21.87
2017-12-11T06:13:07.115Z,17.05
2017-12-11T06:14:09.638Z,58.10
2017-12-11T06:15:12.237Z,32.40
2017-12-11T06:16:14.796Z,21.70
2017-12-11T06:17:18.084Z,20.20
2017-12-11T06:18:21.402Z,17.10
2017-12-11T06:19:23.917Z,19.73
2017-12-11T06:20:26.433Z,18.55
2017-12-11T06:21:28.948Z,20.27
2017-12-11T06:22:31.473Z,17.65
2017-12-11T06:23:34.029Z,24.12
2017-12-11T06:24:36.549Z,18.52
2017-12-11T06:25:39.069Z,15.60
2017-12-11T06:26:41.582Z,24.02
2017-12-11T06:27:44.104Z,30.95
2017-12-11T06:28:46.661Z,34.83
2017-12-11T06:29:49.186Z,25.90
2017-12-11T06:30:51.705Z,17.83
2017-12-11T06:31:54.221Z,31.70
2017-12-11T06:32:57.510Z,23.25
2017-12-11T06:34:00.839Z,18.83
2017-12-11T06:35:03.402Z,21.05
2017-12-11T06:36:05.922Z,20.42
2017-12-11T06:37:09.210Z,20.30
2017-12-11T06:38:12.502Z,23.67
2017-12-11T06:39:15.830Z,21.87
2017-12-11T06:40:18.349Z,20.92
2017-12-11T06:41:21.630Z,21.40
2017-12-11T06:42:24.913Z,21.90
2017-12-11T06:43:28.192Z,21.10
2017-12-11T06:44:31.568Z,19.83
2017-12-11T06:45:34.081Z,18.95
2017-12-11T06:46:36.609Z,18.62
2017-12-11T06:47:39.901Z,17.92
2017-12-11T06:48:43.182Z,16.23
2017-12-11T06:49:46.497Z,15.93
2017-12-11T06:50:49.016Z,17.67
2017-12-11T06:51:51.546Z,16.45
2017-12-11T06:52:54.931Z,13.18
2017-12-11T06:53:57.481Z,15.57
2017-12-11T06:55:00.005Z,14.00
2017-12-11T06:56:03.302Z,14.95
2017-12-11T06:57:06.589Z,14.50
2017-12-11T06:58:09.920Z,12.88
2017-12-11T06:59:12.437Z,13.82
2017-12-11T07:00:15.718Z,13.23
2017-12-11T07:01:19.004Z,16.17
2017-12-11T07:02:22.293Z,14.60
2017-12-11T07:03:25.613Z,15.55
2017-12-11T07:04:28.133Z,11.80
2017-12-11T07:05:31.417Z,11.80
2017-12-11T07:06:34.702Z,16.73
2017-12-11T07:07:37.991Z,15.57
2017-12-11T07:08:41.313Z,12.77
2017-12-11T07:09:43.838Z,12.93
2017-12-11T07:10:47.120Z,15.43
2017-12-11T07:11:50.413Z,14.05
2017-12-11T07:12:52.933Z,14.10
2017-12-11T07:13:55.493Z,14.82
2017-12-11T07:14:58.027Z,14.90
2017-12-11T07:16:00.557Z,21.80
2017-12-11T07:17:03.078Z,13.13
2017-12-11T07:18:05.599Z,12.98
2017-12-11T07:19:08.925Z,14.15
2017-12-11T07:20:11.450Z,14.70
2017-12-11T07:21:14.733Z,16.15
2017-12-11T07:22:18.021Z,18.50
2017-12-11T07:23:21.323Z,17.12
2017-12-11T07:24:23.872Z,15.82
2017-12-11T07:25:27.192Z,14.93
2017-12-11T07:26:29.713Z,18.23
2017-12-11T07:27:33.001Z,13.68
2017-12-11T07:28:36.350Z,15.18
2017-12-11T07:29:38.832Z,14.77
2017-12-11T07:30:41.386Z,14.52
2017-12-11T07:31:43.909Z,14.45
2017-12-11T07:32:46.431Z,14.45
2017-12-11T07:33:48.954Z,15.15
2017-12-11T07:34:51.478Z,17.15
2017-12-11T07:35:54.817Z,19.80
2017-12-11T07:36:57.378Z,16.90
2017-12-11T07:37:59.898Z,14.87
2017-12-11T07:39:03.184Z,15.05
2017-12-11T07:40:06.466Z,16.00
2017-12-11T07:41:09.793Z,17.35
2017-12-11T07:42:12.318Z,16.62
2017-12-11T07:43:15.604Z,14.57
2017-12-11T07:44:18.893Z,12.73
2017-12-11T07:45:21.414Z,15.23
2017-12-11T07:46:23.985Z,16.27
2017-12-11T07:47:26.504Z,17.95
2017-12-11T07:49:38.675Z,18.73
2017-12-11T07:50:41.956Z,18.30
2017-12-11T07:51:45.273Z,13.98
2017-12-11T07:52:47.798Z,17.67
2017-12-11T07:53:50.359Z,13.23
2017-12-11T07:54:52.880Z,13.82
2017-12-11T07:55:55.402Z,18.02
2017-12-11T07:56:58.689Z,12.40
2017-12-11T07:58:01.973Z,15.93
2017-12-11T07:59:05.390Z,13.45
2017-12-11T08:00:07.905Z,13.52
2017-12-11T08:01:10.421Z,12.88
2017-12-11T08:02:12.965Z,16.20
2017-12-11T08:03:15.509Z,14.02
2017-12-11T08:04:18.064Z,16.05
2017-12-11T08:05:20.613Z,15.18
2017-12-11T08:06:23.897Z,14.65
2017-12-11T08:07:26.417Z,14.75
2017-12-11T08:08:29.697Z,16.27
2017-12-11T08:09:33.020Z,15.60
2017-12-11T08:10:35.789Z,16.33
2017-12-11T08:11:38.309Z,21.50
2017-12-11T08:12:41.606Z,15.70
2017-12-11T08:13:44.131Z,14.20
2017-12-11T08:14:46.694Z,19.27
2017-12-11T08:15:49.216Z,17.60
2017-12-11T08:16:51.756Z,16.67
2017-12-11T08:17:55.044Z,15.45
2017-12-11T08:18:58.334Z,12.57
2017-12-11T08:20:01.659Z,16.02
2017-12-11T08:21:04.182Z,15.45
2017-12-11T08:22:07.468Z,17.73
2017-12-11T08:23:10.750Z,17.12
2017-12-11T08:24:13.317Z,19.70
2017-12-11T08:25:16.601Z,16.05
2017-12-11T08:26:20.948Z,16.60
2017-12-11T08:27:23.470Z,14.98
2017-12-11T08:28:26.752Z,18.73
2017-12-11T08:29:30.047Z,18.67
2017-12-11T08:30:32.574Z,14.00
2017-12-11T08:31:35.135Z,19.10
2017-12-11T08:32:37.701Z,14.50
2017-12-11T08:33:40.223Z,14.15
2017-12-11T08:34:42.781Z,14.65
2017-12-11T08:35:45.304Z,14.60
2017-12-11T08:36:47.876Z,17.17
2017-12-11T08:37:50.393Z,18.58
2017-12-11T08:38:52.912Z,15.45
2017-12-11T08:39:55.428Z,14.35
2017-12-11T08:40:57.992Z,14.65
2017-12-11T08:42:00.506Z,16.17
2017-12-11T08:43:03.028Z,16.10
2017-12-11T08:44:05.681Z,17.98
2017-12-11T08:45:08.210Z,17.17
2017-12-11T08:46:10.756Z,16.75
2017-12-11T08:47:13.272Z,18.85
2017-12-11T08:48:16.552Z,15.38
2017-12-11T08:49:19.837Z,13.15
2017-12-11T08:50:23.119Z,14.65
2017-12-11T08:51:26.435Z,16.08
2017-12-11T08:52:28.955Z,13.25
2017-12-11T08:53:32.245Z,12.90
2017-12-11T08:54:35.530Z,11.70
2017-12-11T08:55:38.812Z,11.00
2017-12-11T08:56:42.146Z,20.05
2017-12-11T08:57:44.657Z,11.30
2017-12-11T08:58:47.937Z,9.57
2017-12-11T08:59:51.225Z,11.95
2017-12-11T09:00:54.502Z,9.82
2017-12-11T09:01:57.830Z,10.23
2017-12-11T09:03:00.346Z,9.55
2017-12-11T09:04:02.854Z,9.90
2017-12-11T09:05:05.371Z,26.85
2017-12-11T09:06:07.892Z,15.82
2017-12-11T09:07:10.452Z,11.65
2017-12-11T09:08:12.964Z,9.68
2017-12-11T09:09:15.521Z,10.43
2017-12-11T09:10:18.022Z,9.15
2017-12-11T09:11:21.304Z,9.50
2017-12-11T09:12:24.582Z,9.60
2017-12-11T09:13:27.887Z,8.55
2017-12-11T09:14:30.449Z,9.70
2017-12-11T09:15:33.758Z,11.00
2017-12-11T09:16:36.274Z,10.30
2017-12-11T09:17:38.797Z,9.88
2017-12-11T09:18:41.346Z,10.90
2017-12-11T09:19:43.868Z,13.38
2017-12-11T09:20:46.422Z,19.70
2017-12-11T09:21:48.977Z,15.85
2017-12-11T09:22:51.494Z,13.52
2017-12-11T09:23:54.836Z,11.80
2017-12-11T09:24:57.333Z,10.85
2017-12-11T09:26:00.621Z,10.70
2017-12-11T09:27:04.007Z,15.30
2017-12-11T09:28:07.330Z,10.50
2017-12-11T09:29:09.859Z,11.45
2017-12-11T09:30:13.141Z,11.68
2017-12-11T09:31:16.425Z,10.20
2017-12-11T09:32:19.714Z,12.30
2017-12-11T09:33:23.026Z,18.55
2017-12-11T09:34:25.548Z,14.90
2017-12-11T09:35:28.112Z,16.12
2017-12-11T09:36:30.637Z,14.90
2017-12-11T09:37:33.161Z,19.55
2017-12-11T09:38:36.503Z,15.60
2017-12-11T09:39:39.791Z,17.12
2017-12-11T09:40:42.320Z,19.15
2017-12-11T09:41:44.846Z,14.85
2017-12-11T09:42:48.146Z,13.57
2017-12-11T09:43:51.471Z,16.98
2017-12-11T09:44:53.998Z,17.15
2017-12-11T09:45:57.291Z,17.42
2017-12-11T09:46:59.814Z,18.85
2017-12-11T09:48:02.343Z,15.50
2017-12-11T09:49:04.897Z,18.58
2017-12-11T09:50:07.409Z,18.30
2017-12-11T09:51:09.929Z,17.10
2017-12-11T09:52:12.457Z,18.83
2017-12-11T09:53:15.013Z,16.17
2017-12-11T09:54:17.557Z,17.58
2017-12-11T09:55:20.077Z,16.12
2017-12-11T09:56:23.366Z,19.05
2017-12-11T09:57:25.898Z,15.00
2017-12-11T09:58:28.462Z,19.50
2017-12-11T09:59:30.987Z,14.95
2017-12-11T10:00:33.496Z,17.70
2017-12-11T10:01:36.011Z,17.23
2017-12-11T10:02:38.575Z,19.08
2017-12-11T10:03:41.102Z,18.85
2017-12-11T10:04:44.395Z,18.60
2017-12-11T10:05:47.682Z,18.45
2017-12-11T10:06:50.966Z,18.12
2017-12-11T10:07:54.294Z,18.15
2017-12-11T10:08:56.818Z,19.15
2017-12-11T10:10:00.096Z,18.17
2017-12-11T10:11:03.385Z,17.10
2017-12-11T10:12:06.679Z,15.02
2017-12-11T10:13:09.232Z,17.30
2017-12-11T10:14:12.557Z,18.55
2017-12-11T10:15:15.079Z,18.80
2017-12-11T10:16:18.366Z,19.60
2017-12-11T10:17:21.652Z,20.40
2017-12-11T10:18:24.937Z,19.87
2017-12-11T10:19:28.261Z,23.08
2017-12-11T10:20:30.781Z,18.33
2017-12-11T10:21:34.078Z,21.95
2017-12-11T10:22:36.611Z,20.67
2017-12-11T10:23:39.136Z,19.27
2017-12-11T10:24:41.706Z,19.65
2017-12-11T10:25:44.233Z,18.83
2017-12-11T10:26:47.520Z,19.15
2017-12-11T10:27:50.058Z,24.33
2017-12-11T10:28:52.587Z,20.15
2017-12-11T10:29:55.146Z,18.75
2017-12-11T10:30:57.680Z,23.83
2017-12-11T10:32:00.205Z,17.42
2017-12-11T10:33:02.726Z,18.87
2017-12-11T10:34:05.278Z,21.08
2017-12-11T10:35:08.566Z,20.40
2017-12-11T10:36:11.853Z,19.10
2017-12-11T10:37:15.137Z,20.05
2017-12-11T10:38:18.419Z,21.55
2017-12-11T10:39:21.745Z,23.42
2017-12-11T10:40:24.270Z,22.17
2017-12-11T10:41:27.558Z,18.83
2017-12-11T10:42:30.081Z,22.65
2017-12-11T10:43:32.606Z,22.70
2017-12-11T10:44:35.163Z,22.20
2017-12-11T10:45:37.684Z,20.37
2017-12-11T10:46:40.202Z,20.85
2017-12-11T10:47:42.773Z,22.67
2017-12-11T10:48:45.292Z,20.88
2017-12-11T10:49:47.813Z,22.60
2017-12-11T10:50:50.334Z,18.15
2017-12-11T10:51:53.631Z,23.25
2017-12-11T10:52:56.193Z,24.33
2017-12-11T10:53:59.493Z,17.67
2017-12-11T10:55:02.016Z,23.92
2017-12-11T10:56:04.538Z,24.65
2017-12-11T10:57:07.061Z,26.62
2017-12-11T10:58:09.621Z,24.80
2017-12-11T10:59:12.149Z,19.17
2017-12-11T11:00:14.674Z,23.62
2017-12-11T11:01:17.288Z,23.30
2017-12-11T11:02:19.806Z,20.15
2017-12-11T11:03:23.124Z,20.37
2017-12-11T11:04:25.648Z,24.23
2017-12-11T11:05:28.942Z,23.17
2017-12-11T11:06:32.229Z,25.85
2017-12-11T11:07:34.765Z,19.90
2017-12-11T11:08:37.329Z,20.80
2017-12-11T11:09:39.845Z,21.33
2017-12-11T11:10:42.369Z,22.55
2017-12-11T11:11:44.883Z,19.80
2017-12-11T11:12:47.401Z,25.20
2017-12-11T11:13:49.961Z,22.27
2017-12-11T11:14:52.477Z,23.33
2017-12-11T11:15:55.002Z,22.17
2017-12-11T11:16:58.286Z,26.48
2017-12-11T11:18:01.573Z,20.33
2017-12-11T11:19:04.887Z,22.58
2017-12-11T11:20:07.414Z,20.80
2017-12-11T11:21:09.935Z,22.55
2017-12-11T11:22:12.459Z,21.52
2017-12-11T11:23:15.785Z,19.95
2017-12-11T11:24:18.306Z,23.48
2017-12-11T11:25:21.589Z,19.02
2017-12-11T11:26:24.876Z,20.37
2017-12-11T11:27:28.194Z,20.95
2017-12-11T11:28:30.714Z,19.62
2017-12-11T11:29:33.238Z,20.48
2017-12-11T11:30:35.761Z,22.08
2017-12-11T11:31:39.059Z,23.00
2017-12-11T11:32:41.627Z,22.60
2017-12-11T11:33:44.154Z,29.40
2017-12-11T11:34:46.761Z,30.27
2017-12-11T11:35:49.290Z,22.33
2017-12-11T11:36:51.808Z,25.42
2017-12-11T11:37:54.364Z,23.58
2017-12-11T11:38:56.885Z,24.08
2017-12-11T11:39:59.406Z,21.05
2017-12-11T11:41:01.965Z,27.90
2017-12-11T11:42:04.480Z,29.00
2017-12-11T11:43:06.998Z,21.60
2017-12-11T11:44:09.513Z,30.15
2017-12-11T11:45:12.040Z,26.87
2017-12-11T11:46:14.618Z,20.20
2017-12-11T11:47:17.129Z,26.02
2017-12-11T11:48:20.418Z,24.37
2017-12-11T11:49:23.718Z,23.80
2017-12-11T11:50:26.240Z,23.85
2017-12-11T11:51:28.793Z,24.83
2017-12-11T11:52:31.334Z,22.92
2017-12-11T11:53:33.856Z,28.98
2017-12-11T11:54:36.372Z,20.98
2017-12-11T11:55:38.897Z,22.58
2017-12-11T11:56:42.213Z,21.15
2017-12-11T11:57:44.740Z,21.00
2017-12-11T11:58:48.026Z,21.58
2017-12-11T11:59:51.321Z,19.25
2017-12-11T12:00:54.630Z,18.95
2017-12-11T12:01:57.195Z,20.60
2017-12-11T12:02:59.712Z,19.55
2017-12-11T12:04:02.230Z,19.92
2017-12-11T12:05:04.753Z,20.55
2017-12-11T12:06:08.050Z,17.62
2017-12-11T12:07:11.370Z,20.50
2017-12-11T12:08:13.893Z,19.12
2017-12-11T12:09:17.197Z,20.20
2017-12-11T12:10:19.717Z,24.05
2017-12-11T12:11:23.050Z,19.23
2017-12-11T12:12:25.567Z,21.67
2017-12-11T12:13:28.086Z,20.25
2017-12-11T12:14:30.601Z,21.08
2017-12-11T12:15:33.126Z,20.92
2017-12-11T12:16:35.700Z,19.30
2017-12-11T12:17:38.222Z,18.30
2017-12-11T12:18:41.505Z,15.93
2017-12-11T12:19:44.795Z,17.10
2017-12-11T12:20:48.078Z,18.50
2017-12-11T12:21:51.404Z,21.20
2017-12-11T12:22:53.941Z,17.50
2017-12-11T12:23:56.479Z,17.15
2017-12-11T12:24:59.009Z,15.77
2017-12-11T12:26:01.536Z,15.40
2017-12-11T12:27:04.865Z,16.83
2017-12-11T12:28:07.406Z,18.92
2017-12-11T12:29:09.925Z,15.82
2017-12-11T12:30:12.573Z,17.33
2017-12-11T12:31:15.088Z,17.35
2017-12-11T12:32:17.650Z,16.50
2017-12-11T12:33:20.177Z,16.12
2017-12-11T12:34:22.706Z,18.87
2017-12-11T12:35:25.231Z,21.80
2017-12-11T12:36:28.517Z,25.95
2017-12-11T12:37:31.833Z,20.33
2017-12-11T12:38:34.412Z,20.42
2017-12-11T12:39:36.936Z,18.73
2017-12-11T12:40:40.227Z,17.58
2017-12-11T12:41:43.512Z,21.65
2017-12-11T12:42:46.107Z,19.50
2017-12-11T12:43:48.665Z,16.45
2017-12-11T12:44:51.200Z,24.63
2017-12-11T12:45:54.485Z,20.15
2017-12-11T12:46:57.777Z,18.50
2017-12-11T12:48:01.091Z,24.52
2017-12-11T12:49:03.620Z,27.80
2017-12-11T12:50:06.938Z,20.45
2017-12-11T12:51:09.497Z,26.60
2017-12-11T12:52:12.016Z,20.70
2017-12-11T12:53:14.543Z,20.77
2017-12-11T12:54:17.057Z,18.33
2017-12-11T12:55:19.612Z,26.92
2017-12-11T12:56:22.132Z,21.40
2017-12-11T12:57:24.676Z,24.42
2017-12-11T12:58:27.963Z,21.40
2017-12-11T12:59:31.240Z,21.23
2017-12-11T13:00:34.550Z,22.60
2017-12-11T13:01:37.062Z,21.35
2017-12-11T13:02:39.589Z,21.10
2017-12-11T13:03:42.158Z,22.65
2017-12-11T13:04:44.673Z,19.27
2017-12-11T13:05:47.193Z,21.30
2017-12-11T13:06:49.713Z,16.67
2017-12-11T13:07:53.002Z,23.25
2017-12-11T13:08:56.366Z,18.58
2017-12-11T13:09:58.887Z,19.75
2017-12-11T13:11:01.407Z,16.52
2017-12-11T13:12:03.928Z,26.37
2017-12-11T13:13:06.444Z,24.20
2017-12-11T13:14:09.762Z,19.77
2017-12-11T13:15:12.281Z,19.45
2017-12-11T13:16:14.851Z,18.55
2017-12-11T13:17:17.381Z,19.12
2017-12-11T13:18:19.901Z,24.85
2017-12-11T13:19:23.203Z,27.73
2017-12-11T13:20:25.725Z,24.35
2017-12-11T13:21:28.293Z,21.45
2017-12-11T13:22:30.815Z,22.85
2017-12-11T13:23:33.331Z,33.53
2017-12-11T13:24:35.858Z,24.95
2017-12-11T13:25:38.405Z,21.55
2017-12-11T13:26:40.967Z,28.73
2017-12-11T13:27:43.498Z,24.37
2017-12-11T13:28:46.016Z,21.60
2017-12-11T13:29:48.529Z,25.20
2017-12-11T13:30:51.059Z,21.65
2017-12-11T13:31:53.601Z,28.98
2017-12-11T13:32:56.136Z,24.02
2017-12-11T13:33:58.663Z,18.52
2017-12-11T13:35:01.196Z,22.95
2017-12-11T13:36:03.763Z,21.00
2017-12-11T13:37:06.286Z,24.90
2017-12-11T13:38:08.816Z,21.98
2017-12-11T13:39:11.342Z,20.88
2017-12-11T13:40:14.645Z,23.58
2017-12-11T13:41:17.214Z,23.27